Time;durP1;ratioP1;P1;durP2;ratioP2;P2;SDS_P1;SDS_P2;PMS_P1;PMS_P2;Temp;Humidity;BMP_temperature;BMP_pressure;BME280_temperature;BME280_humidity;BME280_pressure;Samples;Min_cycle;Max_cycle;Signal;HPM_P1;HPM_P2
2022/11/13 00:01:06;;;;;;;3.15;1.30;;;;;;;;;;5075916;28;20052;-63
2022/11/13 00:03:57;;;;;;;4.32;1.50;;;;;;;;;;5092580;28;20495;-63
2022/11/13 00:06:46;;;;;;;3.95;1.52;;;;;;;;;;5101108;28;20055;-62
2022/11/13 00:09:34;;;;;;;3.58;1.50;;;;;;;;;;5097140;28;20052;-63
2022/11/13 00:12:23;;;;;;;3.72;1.42;;;;;;;;;;5097990;28;20048;-63
2022/11/13 00:15:12;;;;;;;4.10;1.70;;;;;;;;;;5097377;28;20044;-63
2022/11/13 00:18:02;;;;;;;5.00;1.60;;;;;;;;;;5105780;28;20052;-63
2022/11/13 00:20:51;;;;;;;3.92;1.55;;;;;;;;;;5093681;28;20043;-63
2022/11/13 00:23:40;;;;;;;4.97;1.15;;;;;;;;;;5112537;28;20048;-63
2022/11/13 00:26:30;;;;;;;3.78;1.50;;;;;;;;;;5112440;28;20051;-63
2022/11/13 00:29:18;;;;;;;5.20;1.40;;;;;;;;;;5112550;28;20052;-63
2022/11/13 00:32:06;;;;;;;3.05;1.50;;;;;;;;;;5112434;28;20051;-62
2022/11/13 00:34:55;;;;;;;3.55;1.58;;;;;;;;;;5112481;28;20491;-62
2022/11/13 00:37:44;;;;;;;3.70;1.48;;;;;;;;;;5112409;28;20047;-62
2022/11/13 00:40:32;;;;;;;3.95;1.52;;;;;;;;;;5112354;28;20043;-63
2022/11/13 00:43:21;;;;;;;4.00;2.00;;;;;;;;;;5097449;28;20047;-63
2022/11/13 00:46:10;;;;;;;5.75;1.40;;;;;;;;;;5107720;28;20048;-64
2022/11/13 00:48:58;;;;;;;3.00;1.50;;;;;;;;;;5102320;28;20040;-62
2022/11/13 00:51:47;;;;;;;4.35;1.40;;;;;;;;;;5071460;28;20048;-62
2022/11/13 00:54:36;;;;;;;4.95;1.55;;;;;;;;;;5105881;28;20040;-63
2022/11/13 00:57:25;;;;;;;2.97;1.52;;;;;;;;;;5109844;28;20043;-63
2022/11/13 01:00:13;;;;;;;3.38;1.60;;;;;;;;;;5115818;28;20044;-62
2022/11/13 01:03:02;;;;;;;3.33;1.27;;;;;;;;;;5115480;28;20048;-63
2022/11/13 01:05:50;;;;;;;3.72;1.58;;;;;;;;;;5115668;28;20422;-62
2022/11/13 01:08:39;;;;;;;4.07;1.70;;;;;;;;;;5115821;28;20469;-62
2022/11/13 01:11:30;;;;;;;3.28;1.58;;;;;;;;;;5115860;28;20048;-62
2022/11/13 01:14:18;;;;;;;;;;;;;;;;;;5115681;28;20043;-63
2022/11/13 01:17:06;;;;;;;4.03;1.80;;;;;;;;;;5115681;28;19923;-63
2022/11/13 01:19:54;;;;;;;3.63;1.45;;;;;;;;;;5100388;28;20048;-62
2022/11/13 01:22:43;;;;;;;4.32;1.55;;;;;;;;;;5115381;28;20048;-62
2022/11/13 01:25:32;;;;;;;3.15;1.42;;;;;;;;;;5115539;28;20051;-64
2022/11/13 01:28:20;;;;;;;4.03;1.65;;;;;;;;;;5070633;28;20430;-63
2022/11/13 01:31:14;;;;;;;4.43;1.67;;;;;;;;;;5100189;28;20487;-63
2022/11/13 01:34:02;;;;;;;6.18;1.80;;;;;;;;;;5071928;28;20048;-63
2022/11/13 01:36:51;;;;;;;5.55;1.85;;;;;;;;;;5070775;28;20047;-63
2022/11/13 01:39:40;;;;;;;5.80;1.85;;;;;;;;;;5115014;28;20047;-63
2022/11/13 01:42:32;;;;;;;5.82;1.40;;;;;;;;;;5084294;28;20502;-66
2022/11/13 01:46:08;;;;;;;4.65;2.00;;;;;;;;;;5115069;28;20043;-64
2022/11/13 01:49:02;;;;;;;5.13;1.80;;;;;;;;;;5012353;28;20058;-63
2022/11/13 01:51:51;;;;;;;4.47;1.90;;;;;;;;;;5012467;28;20062;-63
2022/11/13 01:54:46;;;;;;;4.30;1.60;;;;;;;;;;4983978;28;20057;-63
2022/11/13 01:57:35;;;;;;;4.72;1.85;;;;;;;;;;4984138;28;20046;-63
2022/11/13 02:00:24;;;;;;;5.45;2.10;;;;;;;;;;4984329;28;20058;-63
2022/11/13 02:03:12;;;;;;;7.85;2.30;;;;;;;;;;4998438;28;20070;-63
2022/11/13 02:06:01;;;;;;;5.53;2.13;;;;;;;;;;5012154;28;20521;-63
2022/11/13 02:08:50;;;;;;;4.85;2.15;;;;;;;;;;4998358;28;20421;-65
2022/11/13 02:11:40;;;;;;;3.70;1.70;;;;;;;;;;5011651;28;20050;-63
2022/11/13 02:14:29;;;;;;;4.93;2.08;;;;;;;;;;5011814;28;20440;-65
2022/11/13 02:17:34;;;;;;;4.93;2.40;;;;;;;;;;5011820;28;20417;-63
2022/11/13 02:20:44;;;;;;;5.22;2.42;;;;;;;;;;4983743;28;20046;-63
2022/11/13 02:23:57;;;;;;;5.35;2.80;;;;;;;;;;5011674;28;20046;-64
2022/11/13 02:26:45;;;;;;;5.18;3.17;;;;;;;;;;5114194;28;20414;-64
2022/11/13 02:29:33;;;;;;;3.95;2.10;;;;;;;;;;5114295;28;20052;-64
2022/11/13 02:32:22;;;;;;;8.10;2.25;;;;;;;;;;5114054;28;20036;-63
2022/11/13 02:35:16;;;;;;;5.25;2.15;;;;;;;;;;5114422;28;20506;-63
2022/11/13 02:38:05;;;;;;;5.90;2.38;;;;;;;;;;5113894;28;20051;-64
2022/11/13 02:40:53;;;;;;;6.28;2.22;;;;;;;;;;5113715;28;20044;-63
2022/11/13 02:43:42;;;;;;;4.82;2.88;;;;;;;;;;5098882;28;20403;-63
2022/11/13 02:46:31;;;;;;;4.97;2.35;;;;;;;;;;5083316;28;20047;-64
2022/11/13 02:49:19;;;;;;;5.00;2.17;;;;;;;;;;5113753;28;20044;-64
2022/11/13 02:52:07;;;;;;;6.47;2.38;;;;;;;;;;5113650;28;20494;-63
2022/11/13 02:54:56;;;;;;;5.82;2.50;;;;;;;;;;5113756;28;20494;-63
2022/11/13 02:57:45;;;;;;;7.53;3.03;;;;;;;;;;5097257;28;20043;-64
2022/11/13 03:00:33;;;;;;;5.32;2.33;;;;;;;;;;5113799;28;20047;-63
2022/11/13 03:03:22;;;;;;;5.32;2.55;;;;;;;;;;5113370;28;20051;-63
2022/11/13 03:06:30;;;;;;;5.88;2.30;;;;;;;;;;5113600;28;20052;-63
2022/11/13 03:09:19;;;;;;;6.43;2.30;;;;;;;;;;5068598;28;20487;-63
2022/11/13 03:12:09;;;;;;;5.03;2.53;;;;;;;;;;5113474;28;20047;-63
2022/11/13 03:14:57;;;;;;;4.80;2.08;;;;;;;;;;5112780;28;20051;-65
2022/11/13 03:17:46;;;;;;;6.18;2.15;;;;;;;;;;5082823;28;20052;-63
2022/11/13 03:20:40;;;;;;;4.43;2.13;;;;;;;;;;5113072;28;20047;-64
2022/11/13 03:23:28;;;;;;;7.03;2.30;;;;;;;;;;5113169;28;20051;-64
2022/11/13 03:26:17;;;;;;;7.05;3.10;;;;;;;;;;5113149;28;20407;-64
2022/11/13 03:29:06;;;;;;;4.97;2.20;;;;;;;;;;5112674;28;20048;-63
2022/11/13 03:31:55;;;;;;;5.07;2.08;;;;;;;;;;5041654;28;20053;-64
2022/11/13 03:34:43;;;;;;;6.07;2.47;;;;;;;;;;5069795;28;20052;-63
2022/11/13 03:37:32;;;;;;;7.35;2.40;;;;;;;;;;5055308;28;20120;-63
2022/11/13 03:40:20;;;;;;;8.57;2.30;;;;;;;;;;5070117;28;20072;-63
2022/11/13 03:43:09;;;;;;;6.82;2.75;;;;;;;;;;5069864;28;20048;-63
2022/11/13 03:45:57;;;;;;;5.80;2.72;;;;;;;;;;5069790;28;20045;-63
2022/11/13 03:48:46;;;;;;;9.00;2.53;;;;;;;;;;5069944;28;20060;-63
2022/11/13 03:51:34;;;;;;;7.25;3.30;;;;;;;;;;5070191;28;20431;-64
2022/11/13 03:54:23;;;;;;;5.25;2.70;;;;;;;;;;5069871;28;20044;-64
2022/11/13 03:57:11;;;;;;;6.22;2.63;;;;;;;;;;5056013;28;20049;-63
2022/11/13 04:00:00;;;;;;;8.00;2.53;;;;;;;;;;5061327;28;20045;-63
2022/11/13 04:02:49;;;;;;;7.20;2.88;;;;;;;;;;5049727;28;20508;-63
2022/11/13 04:05:39;;;;;;;6.93;2.40;;;;;;;;;;5034995;28;20068;-63
2022/11/13 04:08:27;;;;;;;6.43;2.63;;;;;;;;;;5057746;28;20056;-63
2022/11/13 04:11:16;;;;;;;6.47;2.72;;;;;;;;;;5092265;28;20040;-63
2022/11/13 04:14:04;;;;;;;6.60;2.80;;;;;;;;;;5092112;28;20044;-64
2022/11/13 04:16:53;;;;;;;7.00;3.40;;;;;;;;;;5092042;28;20507;-63
2022/11/13 04:19:41;;;;;;;9.98;3.10;;;;;;;;;;5061540;28;20048;-63
2022/11/13 04:22:30;;;;;;;6.13;2.58;;;;;;;;;;5092147;28;20048;-64
2022/11/13 04:25:19;;;;;;;8.88;3.13;;;;;;;;;;5092191;28;20415;-64
2022/11/13 04:28:09;;;;;;;7.15;2.75;;;;;;;;;;5065074;28;20048;-66
2022/11/13 04:30:58;;;;;;;6.28;2.75;;;;;;;;;;5065638;28;20048;-68
2022/11/13 04:33:47;;;;;;;5.90;2.70;;;;;;;;;;5096225;28;20044;-67
2022/11/13 04:36:36;;;;;;;8.20;3.60;;;;;;;;;;5065503;28;20414;-66
2022/11/13 04:39:25;;;;;;;6.47;2.85;;;;;;;;;;5095841;28;20056;-67
2022/11/13 04:45:22;;;;;;;7.43;2.88;;;;;;;;;;5095921;28;20052;-68
2022/11/13 04:48:11;;;;;;;7.78;3.30;;;;;;;;;;5095578;28;20044;-68
2022/11/13 04:50:59;;;;;;;5.38;3.00;;;;;;;;;;5095593;28;20052;-68
2022/11/13 04:53:47;;;;;;;7.18;3.38;;;;;;;;;;5065070;28;20056;-68
2022/11/13 04:56:36;;;;;;;6.28;3.58;;;;;;;;;;5066133;28;20052;-68
2022/11/13 04:59:25;;;;;;;6.63;3.90;;;;;;;;;;5095825;28;20584;-68
2022/11/13 05:02:14;;;;;;;7.82;3.58;;;;;;;;;;5095265;28;20056;-68
2022/11/13 05:05:02;;;;;;;9.07;3.63;;;;;;;;;;5095432;28;20052;-67
2022/11/13 05:07:52;;;;;;;6.70;3.08;;;;;;;;;;5095359;28;20052;-67
2022/11/13 05:10:40;;;;;;;8.63;3.55;;;;;;;;;;5095430;28;20052;-66
2022/11/13 05:13:36;;;;;;;6.72;3.40;;;;;;;;;;5050734;28;20056;-65
2022/11/13 05:16:24;;;;;;;8.30;3.53;;;;;;;;;;5095246;28;20040;-65
2022/11/13 05:19:13;;;;;;;6.55;4.18;;;;;;;;;;5095455;28;20044;-66
2022/11/13 05:22:01;;;;;;;8.70;3.83;;;;;;;;;;5095351;28;20052;-66
2022/11/13 05:24:50;;;;;;;7.57;3.92;;;;;;;;;;5095392;28;20048;-67
2022/11/13 05:27:39;;;;;;;8.15;4.10;;;;;;;;;;5080216;28;20052;-68
2022/11/13 05:30:27;;;;;;;7.60;3.55;;;;;;;;;;5095019;28;20044;-68
2022/11/13 05:33:16;;;;;;;7.85;3.85;;;;;;;;;;5095023;28;20044;-67
2022/11/13 05:36:11;;;;;;;7.43;4.05;;;;;;;;;;5095099;28;20048;-69
2022/11/13 05:38:59;;;;;;;7.18;3.90;;;;;;;;;;5064054;28;20052;-66
2022/11/13 05:41:48;;;;;;;7.07;4.18;;;;;;;;;;5064306;28;20056;-65
2022/11/13 05:44:36;;;;;;;8.02;3.97;;;;;;;;;;5094971;28;20044;-66
2022/11/13 05:47:25;;;;;;;10.43;3.95;;;;;;;;;;5094731;28;20044;-65
2022/11/13 05:50:14;;;;;;;7.15;4.05;;;;;;;;;;5094752;28;20499;-64
2022/11/13 05:53:02;;;;;;;10.32;4.25;;;;;;;;;;5094612;28;20056;-64
2022/11/13 05:55:51;;;;;;;6.93;4.22;;;;;;;;;;5094231;28;20048;-64
2022/11/13 05:58:41;;;;;;;9.07;4.30;;;;;;;;;;5094366;28;20430;-64
2022/11/13 06:01:32;;;;;;;10.80;4.00;;;;;;;;;;5094353;28;20048;-64
2022/11/13 06:04:21;;;;;;;8.77;4.38;;;;;;;;;;5052446;28;20056;-65
2022/11/13 06:07:09;;;;;;;10.52;4.28;;;;;;;;;;5094013;28;20056;-64
2022/11/13 06:10:00;;;;;;;8.00;4.45;;;;;;;;;;5063793;28;20052;-64
2022/11/13 06:12:49;;;;;;;10.02;4.38;;;;;;;;;;5064259;28;20047;-64
2022/11/13 06:15:37;;;;;;;9.65;5.00;;;;;;;;;;5093714;28;20490;-64
2022/11/13 06:18:25;;;;;;;9.00;4.45;;;;;;;;;;5063748;28;20060;-66
2022/11/13 06:21:18;;;;;;;10.18;4.43;;;;;;;;;;5094211;28;20048;-64
2022/11/13 06:24:08;;;;;;;7.70;4.07;;;;;;;;;;5063465;28;20052;-64
2022/11/13 06:26:56;;;;;;;8.02;4.35;;;;;;;;;;5093962;28;20048;-65
2022/11/13 06:29:45;;;;;;;9.75;4.80;;;;;;;;;;5063500;28;20403;-65
2022/11/13 06:32:35;;;;;;;8.25;4.32;;;;;;;;;;5093820;28;20048;-64
2022/11/13 06:35:24;;;;;;;7.50;4.43;;;;;;;;;;5093689;28;20040;-65
2022/11/13 06:38:12;;;;;;;8.55;5.35;;;;;;;;;;5064165;28;20403;-65
2022/11/13 06:41:01;;;;;;;9.30;4.28;;;;;;;;;;5093590;28;20052;-65
2022/11/13 06:43:50;;;;;;;8.00;4.13;;;;;;;;;;5093643;28;20060;-65
2022/11/13 06:46:39;;;;;;;9.77;4.30;;;;;;;;;;5093557;28;20044;-65
2022/11/13 06:49:27;;;;;;;6.85;3.78;;;;;;;;;;5092530;28;20048;-64
2022/11/13 06:52:15;;;;;;;8.13;4.35;;;;;;;;;;5077808;28;20044;-64
2022/11/13 06:55:04;;;;;;;8.48;4.45;;;;;;;;;;5049154;28;20047;-65
2022/11/13 06:57:54;;;;;;;7.75;4.30;;;;;;;;;;5048511;28;20055;-64
2022/11/13 07:00:43;;;;;;;7.30;4.85;;;;;;;;;;5093241;28;20403;-64
2022/11/13 07:03:32;;;;;;;9.50;4.22;;;;;;;;;;5093293;28;20048;-64
2022/11/13 07:06:23;;;;;;;7.32;4.05;;;;;;;;;;5048707;28;20044;-65
2022/11/13 07:09:11;;;;;;;10.30;4.28;;;;;;;;;;5093124;28;20048;-64
2022/11/13 07:12:00;;;;;;;10.05;4.35;;;;;;;;;;5093407;28;20446;-65
2022/11/13 07:14:48;;;;;;;10.27;4.32;;;;;;;;;;5092985;28;20491;-64
2022/11/13 07:17:36;;;;;;;9.15;4.50;;;;;;;;;;5092890;28;20052;-65
2022/11/13 07:20:25;;;;;;;10.00;5.60;;;;;;;;;;5062636;28;20407;-65
2022/11/13 07:23:14;;;;;;;10.02;4.82;;;;;;;;;;5093178;28;20543;-64
2022/11/13 07:26:03;;;;;;;7.93;4.65;;;;;;;;;;5092885;28;20048;-65
2022/11/13 07:28:52;;;;;;;10.60;4.70;;;;;;;;;;5077905;28;20048;-64
2022/11/13 07:31:40;;;;;;;8.88;5.00;;;;;;;;;;5035608;28;20048;-64
2022/11/13 07:34:29;;;;;;;9.43;4.95;;;;;;;;;;5092699;28;20052;-65
2022/11/13 07:37:18;;;;;;;7.88;4.13;;;;;;;;;;5062307;28;20056;-65
2022/11/13 07:40:07;;;;;;;8.20;4.25;;;;;;;;;;5092693;28;20052;-65
2022/11/13 07:43:00;;;;;;;10.45;4.97;;;;;;;;;;5077534;28;20045;-64
2022/11/13 07:45:55;;;;;;;7.78;4.43;;;;;;;;;;5092619;28;20048;-65
2022/11/13 07:48:44;;;;;;;12.75;4.43;;;;;;;;;;5092557;28;20048;-64
2022/11/13 07:51:32;;;;;;;10.27;5.68;;;;;;;;;;5092725;28;20586;-65
2022/11/13 07:54:21;;;;;;;8.85;4.25;;;;;;;;;;5062010;28;20434;-65
2022/11/13 07:57:10;;;;;;;7.70;4.07;;;;;;;;;;5092441;28;20052;-65
2022/11/13 07:59:58;;;;;;;8.90;5.15;;;;;;;;;;5092280;28;20399;-64
2022/11/13 08:02:46;;;;;;;9.70;4.72;;;;;;;;;;5092433;28;20048;-64
2022/11/13 08:05:35;;;;;;;8.23;4.60;;;;;;;;;;5047974;28;20052;-65
2022/11/13 08:08:24;;;;;;;10.85;4.40;;;;;;;;;;5047808;28;20052;-64
2022/11/13 08:11:13;;;;;;;8.75;4.40;;;;;;;;;;5092363;28;20036;-64
2022/11/13 08:14:01;;;;;;;7.43;4.13;;;;;;;;;;5092150;28;20040;-64
2022/11/13 08:16:49;;;;;;;9.43;4.50;;;;;;;;;;5047421;28;20052;-65
2022/11/13 08:19:39;;;;;;;10.10;5.18;;;;;;;;;;5061827;28;20056;-65
2022/11/13 08:22:29;;;;;;;9.60;4.63;;;;;;;;;;5062839;28;20048;-65
2022/11/13 08:25:18;;;;;;;10.20;4.50;;;;;;;;;;5077853;28;20048;-65
2022/11/13 08:28:06;;;;;;;11.88;4.78;;;;;;;;;;5092158;28;20495;-65
2022/11/13 08:31:00;;;;;;;8.77;4.40;;;;;;;;;;5091778;28;20056;-66
2022/11/13 08:33:49;;;;;;;9.38;4.30;;;;;;;;;;5092105;28;20387;-68
2022/11/13 08:36:38;;;;;;;11.25;4.93;;;;;;;;;;5092071;28;20078;-67
2022/11/13 08:39:26;;;;;;;9.52;4.70;;;;;;;;;;5061608;28;20053;-68
2022/11/13 08:42:15;;;;;;;9.30;4.90;;;;;;;;;;5047848;28;20044;-67
2022/11/13 08:45:05;;;;;;;9.52;4.63;;;;;;;;;;5092108;28;20044;-68
2022/11/13 08:47:53;;;;;;;9.70;4.20;;;;;;;;;;5091876;28;20048;-67
2022/11/13 08:50:41;;;;;;;8.63;4.03;;;;;;;;;;5091853;28;20048;-69
2022/11/13 08:53:30;;;;;;;8.13;3.67;;;;;;;;;;5061239;28;20056;-67
2022/11/13 08:56:19;;;;;;;9.00;3.85;;;;;;;;;;5092145;28;20040;-67
2022/11/13 08:59:09;;;;;;;8.82;4.05;;;;;;;;;;5048677;28;20048;-68
2022/11/13 09:01:58;;;;;;;8.18;4.63;;;;;;;;;;5092037;28;20036;-68
2022/11/13 09:04:47;;;;;;;8.20;4.38;;;;;;;;;;5061363;28;20515;-69
2022/11/13 09:07:35;;;;;;;11.00;4.57;;;;;;;;;;5091519;28;20044;-69
2022/11/13 09:10:25;;;;;;;8.82;4.38;;;;;;;;;;5091532;28;20522;-67
2022/11/13 09:13:12;;;;;;;8.70;4.72;;;;;;;;;;5093660;28;20075;-68
2022/11/13 09:16:02;;;;;;;11.38;4.10;;;;;;;;;;5095319;28;20491;-69
2022/11/13 09:18:51;;;;;;;8.02;4.40;;;;;;;;;;5095094;28;20044;-68
2022/11/13 09:21:40;;;;;;;9.95;5.28;;;;;;;;;;5050841;28;20398;-68
2022/11/13 09:24:28;;;;;;;11.60;4.70;;;;;;;;;;5095230;28;20044;-67
2022/11/13 09:27:17;;;;;;;11.23;4.40;;;;;;;;;;5050999;28;20044;-68
2022/11/13 09:30:06;;;;;;;11.23;5.63;;;;;;;;;;5064355;28;20048;-67
2022/11/13 09:32:56;;;;;;;8.00;3.60;;;;;;;;;;5095151;28;20056;-67
2022/11/13 09:35:44;;;;;;;7.60;3.80;;;;;;;;;;5095020;28;20527;-66
2022/11/13 09:38:33;;;;;;;8.23;3.75;;;;;;;;;;5080185;28;20052;-67
2022/11/13 09:41:27;;;;;;;5.88;2.55;;;;;;;;;;5094976;28;20498;-67
2022/11/13 09:44:30;;;;;;;6.57;3.40;;;;;;;;;;5024676;28;20047;-67
2022/11/13 09:47:24;;;;;;;6.70;3.22;;;;;;;;;;5079773;28;20044;-66
2022/11/13 09:50:20;;;;;;;8.02;3.28;;;;;;;;;;5018474;28;20049;-66
2022/11/13 09:53:12;;;;;;;6.70;3.47;;;;;;;;;;5032299;28;20045;-66
2022/11/13 09:56:06;;;;;;;7.22;3.20;;;;;;;;;;5018238;28;20502;-65
2022/11/13 09:59:19;;;;;;;7.57;3.22;;;;;;;;;;5032177;28;20050;-65
2022/11/13 10:02:08;;;;;;;5.97;2.85;;;;;;;;;;5032121;28;20057;-66
2022/11/13 10:04:59;;;;;;;8.80;3.90;;;;;;;;;;5032112;28;20544;-66
2022/11/13 10:07:59;;;;;;;9.20;4.28;;;;;;;;;;5017994;28;20097;-66
2022/11/13 10:11:15;;;;;;;7.82;3.50;;;;;;;;;;5017339;28;20521;-67
2022/11/13 10:14:20;;;;;;;7.40;2.90;;;;;;;;;;4989877;28;20098;-67
2022/11/13 10:17:45;;;;;;;6.47;2.33;;;;;;;;;;5031457;28;20045;-66
2022/11/13 10:20:35;;;;;;;7.32;3.25;;;;;;;;;;5003823;28;20525;-66
2022/11/13 10:23:36;;;;;;;6.45;2.60;;;;;;;;;;5031441;28;20552;-67
2022/11/13 10:26:28;;;;;;;6.32;2.92;;;;;;;;;;4993741;28;20050;-65
2022/11/13 10:29:20;;;;;;;5.53;2.60;;;;;;;;;;5079399;28;20070;-67
2022/11/13 10:32:27;;;;;;;5.45;2.28;;;;;;;;;;5094225;28;20040;-67
2022/11/13 10:35:44;;;;;;;5.60;2.63;;;;;;;;;;5093962;28;20040;-68
2022/11/13 10:38:56;;;;;;;5.28;2.08;;;;;;;;;;5094007;28;20055;-67
2022/11/13 10:41:52;;;;;;;4.60;2.20;;;;;;;;;;5093634;28;20044;-65
2022/11/13 10:44:51;;;;;;;5.03;2.22;;;;;;;;;;5093812;28;20048;-67
2022/11/13 10:47:50;;;;;;;5.15;2.45;;;;;;;;;;5093593;28;20044;-67
2022/11/13 10:50:59;;;;;;;5.45;2.67;;;;;;;;;;5031507;28;20048;-68
2022/11/13 10:53:48;;;;;;;8.20;2.50;;;;;;;;;;5062924;28;20695;-67
2022/11/13 10:56:37;;;;;;;6.45;2.85;;;;;;;;;;5093385;28;20048;-67
2022/11/13 10:59:25;;;;;;;5.40;2.67;;;;;;;;;;5093480;28;20498;-66
2022/11/13 11:02:19;;;;;;;6.15;2.92;;;;;;;;;;5093349;28;20048;-66
2022/11/13 11:05:23;;;;;;;7.25;2.60;;;;;;;;;;5092969;28;20512;-65
2022/11/13 11:08:14;;;;;;;6.32;2.55;;;;;;;;;;5093104;28;20048;-67
2022/11/13 11:14:34;;;;;;;5.60;3.08;;;;;;;;;;5093294;28;20411;-67
2022/11/13 11:18:08;;;;;;;6.50;2.80;;;;;;;;;;5093159;28;20044;-67
2022/11/13 11:21:05;;;;;;;8.18;3.40;;;;;;;;;;5023346;28;20053;-67
2022/11/13 11:24:18;;;;;;;6.65;2.67;;;;;;;;;;5036053;28;20089;-68
2022/11/13 11:27:21;;;;;;;5.28;2.63;;;;;;;;;;5039794;28;20045;-68
2022/11/13 11:30:23;;;;;;;6.75;2.55;;;;;;;;;;4968743;28;20058;-67
2022/11/13 11:33:49;;;;;;;5.05;2.30;;;;;;;;;;5025733;28;20045;-67
2022/11/13 11:36:59;;;;;;;3.97;1.83;;;;;;;;;;4924458;29;20112;-68
2022/11/13 11:40:02;;;;;;;6.78;3.30;;;;;;;;;;4938755;28;20055;-67
2022/11/13 11:43:03;;;;;;;7.93;3.40;;;;;;;;;;4952175;28;20047;-67
2022/11/13 11:45:51;;;;;;;6.47;3.05;;;;;;;;;;4952008;28;20051;-67
2022/11/13 11:48:40;;;;;;;5.95;2.35;;;;;;;;;;4911474;29;20503;-66
2022/11/13 11:52:16;;;;;;;5.38;2.53;;;;;;;;;;4952066;28;20051;-67
2022/11/13 11:55:05;;;;;;;5.40;2.70;;;;;;;;;;4920259;29;20059;-68
2022/11/13 11:57:56;;;;;;;5.57;2.92;;;;;;;;;;4969919;28;20046;-68
2022/11/13 12:00:51;;;;;;;5.63;2.78;;;;;;;;;;4984771;28;20050;-68
2022/11/13 12:04:00;;;;;;;6.57;2.83;;;;;;;;;;4976788;28;20091;-68
2022/11/13 12:07:33;;;;;;;6.82;2.80;;;;;;;;;;4975123;28;20054;-68
2022/11/13 12:10:53;;;;;;;9.68;4.88;;;;;;;;;;4987949;28;20046;-69
2022/11/13 12:14:15;;;;;;;8.57;4.35;;;;;;;;;;5032001;28;20057;-68
2022/11/13 12:17:12;;;;;;;6.15;3.00;;;;;;;;;;5002660;28;20080;-68
2022/11/13 12:20:27;;;;;;;7.35;4.00;;;;;;;;;;5032838;28;20045;-69
2022/11/13 12:23:31;;;;;;;5.55;3.22;;;;;;;;;;5049216;28;20544;-69
2022/11/13 12:26:32;;;;;;;5.85;2.92;;;;;;;;;;5006989;28;20049;-68
2022/11/13 12:29:27;;;;;;;5.22;2.53;;;;;;;;;;5049806;28;20049;-67
2022/11/13 12:32:37;;;;;;;5.32;2.97;;;;;;;;;;5072244;28;20412;-70
2022/11/13 12:35:26;;;;;;;7.43;3.80;;;;;;;;;;5092014;28;20052;-69
2022/11/13 12:38:55;;;;;;;7.60;3.15;;;;;;;;;;5063341;28;20044;-68
2022/11/13 12:42:29;;;;;;;6.72;3.20;;;;;;;;;;5029161;28;20555;-66
2022/11/13 12:45:25;;;;;;;4.82;2.45;;;;;;;;;;4970751;28;20051;-67
2022/11/13 12:48:22;;;;;;;4.93;2.30;;;;;;;;;;4945240;28;20055;-67
2022/11/13 12:51:19;;;;;;;6.85;3.85;;;;;;;;;;4954628;28;20055;-67
2022/11/13 12:54:09;;;;;;;6.03;2.80;;;;;;;;;;4942395;29;20063;-68
2022/11/13 12:57:16;;;;;;;15.65;8.32;;;;;;;;;;4914617;29;20059;-67
2022/11/13 13:00:25;;;;;;;6.57;3.58;;;;;;;;;;4927549;29;20059;-66
2022/11/13 13:03:41;;;;;;;8.02;3.53;;;;;;;;;;4944961;28;20506;-69
2022/11/13 13:06:42;;;;;;;;;;;;;;;;;;4971763;28;20085;-66
2022/11/13 13:09:42;;;;;;;5.70;2.75;;;;;;;;;;4950420;29;19923;-68
2022/11/13 13:13:12;;;;;;;6.63;2.60;;;;;;;;;;4954475;28;20100;-68
2022/11/13 13:16:07;;;;;;;5.97;3.20;;;;;;;;;;4859987;29;20061;-69
2022/11/13 13:19:32;;;;;;;5.25;2.63;;;;;;;;;;4868639;29;20067;-68
2022/11/13 13:22:30;;;;;;;5.03;2.50;;;;;;;;;;4859860;29;20065;-68
2022/11/13 13:25:30;;;;;;;5.05;2.55;;;;;;;;;;4860331;29;20118;-69
2022/11/13 13:28:23;;;;;;;5.00;2.33;;;;;;;;;;4875982;29;20144;-68
2022/11/13 13:31:21;;;;;;;4.15;2.00;;;;;;;;;;4897073;29;20056;-67
2022/11/13 13:34:52;;;;;;;4.68;2.05;;;;;;;;;;4896833;29;20056;-68
2022/11/13 13:38:00;;;;;;;6.85;2.85;;;;;;;;;;4896897;29;20072;-68
2022/11/13 13:40:54;;;;;;;4.18;2.10;;;;;;;;;;4870320;29;20056;-68
2022/11/13 13:44:11;;;;;;;5.18;1.98;;;;;;;;;;4897048;29;20513;-68
2022/11/13 13:46:59;;;;;;;4.57;2.20;;;;;;;;;;4904866;29;20060;-69
2022/11/13 13:49:50;;;;;;;5.28;2.25;;;;;;;;;;4934657;29;20051;-68
2022/11/13 13:52:39;;;;;;;4.35;2.17;;;;;;;;;;4958865;28;20055;-70
2022/11/13 13:55:38;;;;;;;4.82;2.28;;;;;;;;;;4992570;28;20050;-68
2022/11/13 13:58:33;;;;;;;7.35;2.40;;;;;;;;;;5074972;28;20056;-68
2022/11/13 14:01:29;;;;;;;4.18;2.45;;;;;;;;;;5065011;28;20060;-66
2022/11/13 14:04:22;;;;;;;3.40;1.80;;;;;;;;;;5094134;28;20533;-65
2022/11/13 14:07:28;;;;;;;3.75;1.77;;;;;;;;;;5093994;28;20048;-65
2022/11/13 14:10:23;;;;;;;5.70;3.38;;;;;;;;;;5089294;28;20056;-66
2022/11/13 14:13:25;;;;;;;3.88;2.00;;;;;;;;;;5114169;28;20503;-65
2022/11/13 14:16:13;;;;;;;4.63;2.03;;;;;;;;;;5114386;28;20039;-65
2022/11/13 14:19:04;;;;;;;5.18;1.90;;;;;;;;;;5059944;28;20048;-64
2022/11/13 14:21:59;;;;;;;4.55;1.98;;;;;;;;;;5048533;28;20044;-65
2022/11/13 14:24:52;;;;;;;5.18;2.45;;;;;;;;;;5014371;28;20049;-67
2022/11/13 14:27:40;;;;;;;4.15;2.13;;;;;;;;;;5022719;28;20049;-67
2022/11/13 14:30:30;;;;;;;4.28;1.85;;;;;;;;;;5053484;28;20052;-68
2022/11/13 14:33:24;;;;;;;3.45;1.75;;;;;;;;;;5067482;28;20053;-68
2022/11/13 14:36:15;;;;;;;3.25;1.63;;;;;;;;;;5071147;28;20048;-69
2022/11/13 14:39:04;;;;;;;5.28;1.83;;;;;;;;;;5070773;28;20052;-69
2022/11/13 14:41:59;;;;;;;3.63;1.88;;;;;;;;;;5070679;28;20048;-70
2022/11/13 14:44:48;;;;;;;5.43;2.40;;;;;;;;;;5035735;28;20061;-68
2022/11/13 14:47:36;;;;;;;3.05;1.45;;;;;;;;;;5023080;28;20053;-67
2022/11/13 14:50:25;;;;;;;4.20;2.33;;;;;;;;;;5050981;28;20408;-67
2022/11/13 14:53:24;;;;;;;7.25;3.60;;;;;;;;;;5036840;28;20053;-66
2022/11/13 14:56:13;;;;;;;3.65;1.58;;;;;;;;;;5050578;28;20065;-67
2022/11/13 14:59:38;;;;;;;3.58;1.90;;;;;;;;;;5059758;28;20045;-67
2022/11/13 15:02:26;;;;;;;3.15;1.60;;;;;;;;;;4983668;28;20054;-65
2022/11/13 15:05:15;;;;;;;3.13;1.60;;;;;;;;;;4982489;28;20053;-65
2022/11/13 15:08:03;;;;;;;4.70;1.40;;;;;;;;;;5010736;28;20049;-64
2022/11/13 15:10:52;;;;;;;3.53;1.90;;;;;;;;;;4981910;28;20572;-63
2022/11/13 15:13:40;;;;;;;3.72;1.40;;;;;;;;;;5010848;28;20058;-64
2022/11/13 15:16:30;;;;;;;3.22;1.55;;;;;;;;;;5010308;28;20049;-65
2022/11/13 15:19:37;;;;;;;2.78;1.27;;;;;;;;;;4996448;28;20054;-64
2022/11/13 15:22:26;;;;;;;2.50;1.33;;;;;;;;;;5015165;28;20057;-65
2022/11/13 15:25:16;;;;;;;4.15;1.40;;;;;;;;;;4987096;28;20053;-64
2022/11/13 15:28:05;;;;;;;2.40;1.20;;;;;;;;;;5020765;28;20046;-63
2022/11/13 15:30:54;;;;;;;1.75;1.00;;;;;;;;;;5010580;28;20093;-63
2022/11/13 15:33:42;;;;;;;1.80;0.75;;;;;;;;;;5012519;28;20065;-63
2022/11/13 15:36:31;;;;;;;2.17;1.02;;;;;;;;;;5014388;28;20042;-63
2022/11/13 15:39:20;;;;;;;1.60;0.70;;;;;;;;;;5078111;28;20772;-63
2022/11/13 15:42:15;;;;;;;1.50;0.85;;;;;;;;;;5096864;28;20040;-65
2022/11/13 15:45:05;;;;;;;1.58;0.80;;;;;;;;;;5084583;28;20048;-64
2022/11/13 15:47:53;;;;;;;1.63;0.73;;;;;;;;;;5067323;28;20060;-66
2022/11/13 15:50:42;;;;;;;1.50;0.70;;;;;;;;;;5069252;28;20064;-68
2022/11/13 15:53:31;;;;;;;1.20;0.55;;;;;;;;;;5042332;28;20096;-65
2022/11/13 15:56:20;;;;;;;2.90;0.80;;;;;;;;;;5055030;28;20049;-65
2022/11/13 15:59:12;;;;;;;1.67;0.73;;;;;;;;;;5054536;28;20044;-67
2022/11/13 16:02:02;;;;;;;2.05;1.23;;;;;;;;;;5069652;28;20523;-67
2022/11/13 16:04:52;;;;;;;2.97;1.52;;;;;;;;;;5065781;28;20049;-67
2022/11/13 16:07:43;;;;;;;1.77;0.98;;;;;;;;;;5060260;28;20056;-67
2022/11/13 16:10:31;;;;;;;1.80;0.70;;;;;;;;;;5060138;28;20045;-68
2022/11/13 16:13:20;;;;;;;3.55;2.50;;;;;;;;;;5017379;28;20427;-67
2022/11/13 16:16:34;;;;;;;1.13;0.70;;;;;;;;;;5038714;28;20053;-68
2022/11/13 16:19:24;;;;;;;1.30;0.70;;;;;;;;;;5055955;28;20056;-68
2022/11/13 16:22:25;;;;;;;1.17;0.52;;;;;;;;;;5059335;28;20053;-68
2022/11/13 16:25:22;;;;;;;0.88;0.60;;;;;;;;;;5076095;28;20426;-68
2022/11/13 16:28:18;;;;;;;1.98;0.90;;;;;;;;;;5096353;28;20048;-66
2022/11/13 16:31:07;;;;;;;0.60;0.40;;;;;;;;;;5095990;28;20044;-65
2022/11/13 16:33:55;;;;;;;1.30;0.43;;;;;;;;;;5095860;28;20511;-66
2022/11/13 16:36:44;;;;;;;1.35;0.47;;;;;;;;;;5096057;28;20048;-65
2022/11/13 16:39:33;;;;;;;1.10;0.43;;;;;;;;;;5096020;28;20048;-63
2022/11/13 16:42:21;;;;;;;1.13;0.77;;;;;;;;;;5090124;28;20402;-64
2022/11/13 16:45:17;;;;;;;1.35;0.47;;;;;;;;;;5115906;28;20043;-62
2022/11/13 16:48:12;;;;;;;0.90;0.52;;;;;;;;;;5103319;28;20502;-63
2022/11/13 16:51:01;;;;;;;1.17;0.40;;;;;;;;;;5095493;28;20045;-63
2022/11/13 16:53:50;;;;;;;0.95;0.70;;;;;;;;;;5080545;28;20406;-62
2022/11/13 16:56:38;;;;;;;1.15;0.50;;;;;;;;;;5106304;28;20047;-63
2022/11/13 16:59:26;;;;;;;0.65;0.30;;;;;;;;;;5115945;28;20411;-63
2022/11/13 17:02:18;;;;;;;1.13;0.40;;;;;;;;;;5085358;28;20039;-62
2022/11/13 17:05:10;;;;;;;0.98;0.35;;;;;;;;;;5115829;28;20048;-62
2022/11/13 17:08:00;;;;;;;0.63;0.40;;;;;;;;;;5115943;28;20047;-62
2022/11/13 17:10:58;;;;;;;1.25;0.50;;;;;;;;;;5106017;28;20718;-62
2022/11/13 17:13:52;;;;;;;0.50;0.40;;;;;;;;;;5099728;28;20047;-61
2022/11/13 17:16:40;;;;;;;2.35;0.40;;;;;;;;;;5086464;28;20052;-62
2022/11/13 17:19:28;;;;;;;1.13;0.80;;;;;;;;;;5115930;28;20399;-61
2022/11/13 17:22:17;;;;;;;0.60;0.35;;;;;;;;;;5091703;28;20060;-61
2022/11/13 17:25:06;;;;;;;1.08;0.50;;;;;;;;;;5106916;28;20040;-63